Time;durP1;ratioP1;P1;durP2;ratioP2;P2;SDS_P1;SDS_P2;PMS_P1;PMS_P2;Temp;Humidity;BMP_temperature;BMP_pressure;BME280_temperature;BME280_humidity;BME280_pressure;Samples;Min_cycle;Max_cycle;Signal;HPM_P1;HPM_P2
2021/09/10 00:00:05;;;;;;;9.90;9.10;;;18.50;87.90;;;;;;5092760;28;20676;-80
2021/09/10 00:02:52;;;;;;;9.53;8.30;;;18.40;89.10;;;;;;5088498;28;20627;-80
2021/09/10 00:05:30;;;;;;;8.93;8.23;;;18.30;90.00;;;;;;5086129;28;20717;-80
2021/09/10 00:08:07;;;;;;;9.80;8.90;;;18.30;90.20;;;;;;5092011;28;20644;-80
2021/09/10 00:10:46;;;;;;;9.50;8.60;;;18.10;90.60;;;;;;5092718;28;20643;-80
2021/09/10 00:13:22;;;;;;;9.37;8.40;;;18.00;90.80;;;;;;5091522;28;20628;-80
2021/09/10 00:15:58;;;;;;;9.13;8.33;;;17.90;90.80;;;;;;5091695;28;21157;-80
2021/09/10 00:18:30;;;;;;;9.83;8.93;;;18.00;90.50;;;;;;5091673;28;20982;-80
2021/09/10 00:21:01;;;;;;;9.10;8.40;;;18.10;90.00;;;;;;5091600;28;20635;-80
2021/09/10 00:23:33;;;;;;;9.73;8.83;;;18.10;91.00;;;;;;5091471;28;20628;-80
2021/09/10 00:26:04;;;;;;;9.83;8.90;;;18.00;91.10;;;;;;5091751;28;20634;-81
2021/09/10 00:28:35;;;;;;;10.23;9.23;;;18.00;90.70;;;;;;5091956;28;20715;-80
2021/09/10 00:31:06;;;;;;;10.30;8.73;;;18.00;90.70;;;;;;5091795;28;21172;-80
2021/09/10 00:33:35;;;;;;;9.87;8.97;;;18.00;91.10;;;;;;5091871;28;20631;-80
2021/09/10 00:36:08;;;;;;;8.97;8.17;;;18.10;91.00;;;;;;5091434;28;20630;-80
2021/09/10 00:38:37;;;;;;;10.13;9.33;;;18.10;91.20;;;;;;5086491;28;20666;-80
2021/09/10 00:41:10;;;;;;;9.43;8.63;;;18.10;91.10;;;;;;5085502;28;21227;-80
2021/09/10 00:43:44;;;;;;;9.87;8.97;;;18.10;90.60;;;;;;5087067;28;20636;-80
2021/09/10 00:46:18;;;;;;;12.00;8.97;;;18.10;91.20;;;;;;5090945;28;20623;-79
2021/09/10 00:49:01;;;;;;;8.87;8.17;;;18.20;90.70;;;;;;5090040;28;20867;-80
2021/09/10 00:51:32;;;;;;;11.17;8.80;;;18.10;91.10;;;;;;5090056;28;20782;-80
2021/09/10 00:54:08;;;;;;;9.90;8.93;;;18.10;91.70;;;;;;5083750;28;20622;-80
2021/09/10 00:56:42;;;;;;;10.37;9.43;;;18.00;91.80;;;;;;5078681;28;20633;-80
2021/09/10 00:59:16;;;;;;;10.20;9.30;;;18.00;91.90;;;;;;5091798;28;20623;-79
2021/09/10 01:01:52;;;;;;;10.40;9.50;;;17.90;92.00;;;;;;5090796;28;21209;-79
2021/09/10 01:04:41;;;;;;;9.90;9.10;;;17.90;92.00;;;;;;5102181;28;20625;-80
2021/09/10 01:07:14;;;;;;;9.30;8.50;;;18.00;92.30;;;;;;5090604;28;20984;-80
2021/09/10 01:09:55;;;;;;;9.87;9.03;;;18.00;91.80;;;;;;5087929;28;20620;-80
2021/09/10 01:12:34;;;;;;;9.80;8.90;;;18.10;91.40;;;;;;5084915;28;20661;-80
2021/09/10 01:15:22;;;;;;;9.00;8.30;;;18.10;91.40;;;;;;5083948;28;21082;-80
2021/09/10 01:17:58;;;;;;;12.20;10.10;;;18.10;91.00;;;;;;5090252;28;20623;-80
2021/09/10 01:20:48;;;;;;;13.10;9.77;;;18.20;91.10;;;;;;5089076;28;20640;-79
2021/09/10 01:23:35;;;;;;;10.00;9.10;;;18.10;91.20;;;;;;5088344;28;20623;-79
2021/09/10 01:26:18;;;;;;;10.03;9.20;;;18.00;91.90;;;;;;5089466;28;20627;-79
2021/09/10 01:28:51;;;;;;;10.00;9.10;;;17.90;92.20;;;;;;5090006;28;20669;-79
2021/09/10 01:31:38;;;;;;;11.00;9.10;;;17.90;92.20;;;;;;5085405;28;21263;-79
2021/09/10 01:34:15;;;;;;;9.10;8.30;;;17.80;92.40;;;;;;5090303;28;21453;-79
2021/09/10 01:36:51;;;;;;;9.30;8.50;;;17.80;92.20;;;;;;5089412;28;20639;-79
2021/09/10 01:39:35;;;;;;;10.00;8.60;;;17.80;92.20;;;;;;5090879;28;20677;-79
2021/09/10 01:42:15;;;;;;;11.27;8.93;;;17.80;92.40;;;;;;5087990;28;20632;-79
2021/09/10 01:44:49;;;;;;;10.03;9.00;;;17.80;92.40;;;;;;5090793;28;20664;-79
2021/09/10 01:47:36;;;;;;;9.83;8.90;;;17.80;92.30;;;;;;5090370;28;20623;-79
2021/09/10 01:50:09;;;;;;;10.63;9.73;;;17.80;92.20;;;;;;5090065;28;20730;-79
2021/09/10 01:52:54;;;;;;;11.73;10.83;;;17.90;92.00;;;;;;5089500;28;20632;-79
2021/09/10 01:55:25;;;;;;;10.63;9.63;;;17.90;92.00;;;;;;5079459;28;20628;-79
2021/09/10 01:58:02;;;;;;;10.53;9.50;;;17.90;92.20;;;;;;5082225;28;20633;-79
2021/09/10 02:00:36;;;;;;;10.40;9.40;;;18.00;92.00;;;;;;5089484;28;21199;-79
2021/09/10 02:03:11;;;;;;;10.00;9.20;;;18.00;92.30;;;;;;5088225;28;20636;-79
2021/09/10 02:05:50;;;;;;;10.10;9.27;;;18.00;92.30;;;;;;5090859;28;20631;-79
2021/09/10 02:08:37;;;;;;;10.33;9.33;;;17.90;93.20;;;;;;5088844;28;20622;-79
2021/09/10 02:11:07;;;;;;;11.70;10.63;;;17.90;93.20;;;;;;5090048;28;20652;-80
2021/09/10 02:13:53;;;;;;;11.30;9.57;;;17.80;93.90;;;;;;5079441;28;20626;-79
2021/09/10 02:16:31;;;;;;;9.87;8.97;;;17.90;93.50;;;;;;5090427;28;20633;-79
2021/09/10 02:19:03;;;;;;;10.40;9.47;;;17.90;93.90;;;;;;5089887;28;20635;-79
2021/09/10 02:21:37;;;;;;;10.17;9.27;;;17.90;93.20;;;;;;5089438;28;20633;-78
2021/09/10 02:24:17;;;;;;;12.03;9.57;;;17.90;93.20;;;;;;5084152;28;20662;-79
2021/09/10 02:26:55;;;;;;;9.97;9.10;;;18.00;93.00;;;;;;5089982;28;20637;-79
2021/09/10 02:29:41;;;;;;;10.20;9.20;;;18.00;92.60;;;;;;5090870;28;20638;-79
2021/09/10 02:32:18;;;;;;;9.83;8.93;;;18.10;92.60;;;;;;5078545;28;20712;-79
2021/09/10 02:34:59;;;;;;;10.87;9.87;;;18.10;92.40;;;;;;5089885;28;21027;-80
2021/09/10 02:37:46;;;;;;;9.67;8.87;;;18.10;92.40;;;;;;5092291;28;20614;-80
2021/09/10 02:40:27;;;;;;;11.33;10.33;;;18.10;92.40;;;;;;5093002;28;20732;-79
2021/09/10 02:43:08;;;;;;;10.63;9.63;;;18.10;92.40;;;;;;5086344;28;20651;-79
2021/09/10 02:45:49;;;;;;;10.27;9.33;;;18.10;92.50;;;;;;5073794;28;20943;-79
2021/09/10 02:48:32;;;;;;;11.80;10.70;;;18.00;92.40;;;;;;5091472;28;20642;-80
2021/09/10 02:51:09;;;;;;;11.30;10.30;;;18.10;92.40;;;;;;5093936;28;20671;-79
2021/09/10 02:53:56;;;;;;;10.90;9.90;;;18.10;92.50;;;;;;5087172;28;20614;-79
2021/09/10 02:56:35;;;;;;;11.33;10.33;;;18.20;92.30;;;;;;5093821;28;20692;-79
2021/09/10 02:59:20;;;;;;;11.07;9.87;;;18.20;92.40;;;;;;5089403;28;20620;-79
2021/09/10 03:02:04;;;;;;;10.40;9.50;;;18.20;92.40;;;;;;5089146;28;20636;-79
2021/09/10 03:04:51;;;;;;;11.63;10.43;;;18.30;92.40;;;;;;5092537;28;20635;-79
2021/09/10 03:07:38;;;;;;;11.80;10.70;;;18.30;92.40;;;;;;5093216;28;20639;-79
2021/09/10 03:10:19;;;;;;;10.97;10.03;;;18.30;92.20;;;;;;5092206;28;20701;-80
2021/09/10 03:12:59;;;;;;;10.67;9.57;;;18.30;92.10;;;;;;5091933;28;20661;-80
2021/09/10 03:15:37;;;;;;;11.70;10.60;;;18.20;92.30;;;;;;5093362;28;20622;-79
2021/09/10 03:18:25;;;;;;;10.77;9.60;;;18.20;92.50;;;;;;5092762;28;20616;-80
2021/09/10 03:21:12;;;;;;;11.20;10.13;;;18.20;92.40;;;;;;5085851;28;20758;-80
2021/09/10 03:23:59;;;;;;;10.63;9.63;;;18.20;92.40;;;;;;5093058;28;20616;-80
2021/09/10 03:26:46;;;;;;;9.80;9.00;;;18.20;92.60;;;;;;5089106;28;20734;-80
2021/09/10 03:29:33;;;;;;;10.80;9.90;;;18.30;92.60;;;;;;5083085;28;21175;-80
2021/09/10 03:32:08;;;;;;;11.03;10.00;;;18.30;92.80;;;;;;5091987;28;20670;-80
2021/09/10 03:34:53;;;;;;;13.33;12.03;;;18.20;92.60;;;;;;5092986;28;20678;-80
2021/09/10 03:37:48;;;;;;;12.27;11.17;;;18.20;92.80;;;;;;5091744;28;20624;-80
2021/09/10 03:40:43;;;;;;;11.50;10.60;;;18.20;92.70;;;;;;5092971;28;20641;-80
2021/09/10 03:43:44;;;;;;;10.03;9.23;;;18.10;93.30;;;;;;5089438;28;20733;-80
2021/09/10 03:46:18;;;;;;;10.93;9.87;;;18.10;93.20;;;;;;5091306;28;20636;-79
2021/09/10 03:49:17;;;;;;;10.90;10.00;;;18.20;92.90;;;;;;5086655;28;20660;-81
2021/09/10 03:52:10;;;;;;;10.80;9.80;;;18.10;93.10;;;;;;5089658;28;20670;-79
2021/09/10 03:54:51;;;;;;;11.17;10.20;;;18.10;93.20;;;;;;5090809;28;20635;-79
2021/09/10 03:57:38;;;;;;;11.37;10.37;;;18.10;92.90;;;;;;5091315;28;20614;-79
2021/09/10 04:00:25;;;;;;;13.70;10.30;;;18.10;93.10;;;;;;5091233;28;20679;-79
2021/09/10 04:03:03;;;;;;;12.77;11.67;;;18.00;93.70;;;;;;5089016;28;21259;-79
2021/09/10 04:05:48;;;;;;;11.10;10.00;;;17.90;93.80;;;;;;5092365;28;21067;-79
2021/09/10 04:08:37;;;;;;;12.10;10.17;;;17.90;93.40;;;;;;5091777;28;20727;-79
2021/09/10 04:11:17;;;;;;;13.30;11.40;;;17.90;93.50;;;;;;5090478;28;20670;-79
2021/09/10 04:13:55;;;;;;;11.77;10.67;;;17.80;93.90;;;;;;5091538;28;20632;-79
2021/09/10 04:16:37;;;;;;;11.10;10.10;;;17.70;94.40;;;;;;5092135;28;20730;-79
2021/09/10 04:19:12;;;;;;;12.40;11.30;;;17.60;95.30;;;;;;5092772;28;20659;-79
2021/09/10 04:21:46;;;;;;;11.97;10.83;;;17.40;95.40;;;;;;5084303;28;21466;-79
2021/09/10 04:24:34;;;;;;;10.93;9.93;;;17.40;95.80;;;;;;5089591;28;20621;-80
2021/09/10 04:27:11;;;;;;;13.60;12.20;;;17.30;96.00;;;;;;5090952;28;20733;-79
2021/09/10 04:29:53;;;;;;;11.43;10.43;;;17.30;95.90;;;;;;5089651;28;20639;-79
2021/09/10 04:32:38;;;;;;;12.40;11.03;;;17.30;95.90;;;;;;5088163;28;20688;-79
2021/09/10 04:35:25;;;;;;;12.93;11.70;;;17.30;95.70;;;;;;5091081;28;20621;-79
2021/09/10 04:38:12;;;;;;;13.30;12.00;;;17.40;95.40;;;;;;5088487;28;20968;-79
2021/09/10 04:41:00;;;;;;;13.60;10.87;;;17.40;95.50;;;;;;5091411;28;20703;-79
2021/09/10 04:43:36;;;;;;;11.37;10.27;;;17.40;95.60;;;;;;5090625;28;20628;-79
2021/09/10 04:46:16;;;;;;;13.23;11.90;;;17.30;96.00;;;;;;5090712;28;20974;-80
2021/09/10 04:48:52;;;;;;;12.53;11.40;;;17.10;96.50;;;;;;5082940;28;20649;-79
2021/09/10 04:51:31;;;;;;;12.47;11.17;;;17.10;96.50;;;;;;5091209;28;20634;-79
2021/09/10 04:54:09;;;;;;;12.00;10.90;;;17.00;96.70;;;;;;5084565;28;20633;-79
2021/09/10 04:56:48;;;;;;;16.23;11.03;;;16.90;97.20;;;;;;5072846;28;20610;-79
2021/09/10 04:59:23;;;;;;;12.17;11.03;;;16.80;97.60;;;;;;5089959;28;20637;-79
2021/09/10 05:01:56;;;;;;;13.13;11.97;;;16.80;97.50;;;;;;5085726;28;20629;-79
2021/09/10 05:04:42;;;;;;;11.97;10.87;;;16.80;97.40;;;;;;5086529;28;20715;-80
2021/09/10 05:07:32;;;;;;;12.13;10.93;;;16.90;97.00;;;;;;5081682;28;20624;-80
2021/09/10 05:13:32;;;;;;;11.73;10.73;;;16.90;97.00;;;;;;5082175;28;20684;-80
2021/09/10 05:16:10;;;;;;;12.47;10.90;;;16.90;97.20;;;;;;5090541;28;20625;-81
2021/09/10 05:18:48;;;;;;;12.73;11.07;;;16.90;97.40;;;;;;5084203;28;20626;-80
2021/09/10 05:21:35;;;;;;;12.90;10.43;;;16.90;97.30;;;;;;5086719;28;20672;-80
2021/09/10 05:24:14;;;;;;;12.00;10.80;;;16.90;97.40;;;;;;5086222;28;20625;-80
2021/09/10 05:26:52;;;;;;;12.93;11.77;;;16.90;97.40;;;;;;5085562;28;20732;-78
2021/09/10 05:29:31;;;;;;;12.37;11.07;;;17.00;97.00;;;;;;5088571;28;20621;-78
2021/09/10 05:32:12;;;;;;;12.87;11.63;;;17.10;96.60;;;;;;5087004;28;20678;-80
2021/09/10 05:35:03;;;;;;;12.67;11.37;;;17.10;96.50;;;;;;5084971;28;20629;-80
2021/09/10 05:37:43;;;;;;;14.03;11.47;;;17.20;96.30;;;;;;5086007;28;20640;-80
2021/09/10 05:40:31;;;;;;;13.23;11.83;;;17.30;96.10;;;;;;5085410;28;20696;-81
2021/09/10 05:43:22;;;;;;;12.90;11.60;;;17.30;95.60;;;;;;5085525;28;21158;-79
2021/09/10 05:46:13;;;;;;;13.73;12.40;;;17.40;95.60;;;;;;5074439;28;20645;-82
2021/09/10 05:49:00;;;;;;;13.97;12.20;;;17.50;95.20;;;;;;5103182;27;20627;-81
2021/09/10 05:51:47;;;;;;;13.00;11.00;;;17.60;95.10;;;;;;5079169;28;21670;-81
2021/09/10 05:54:34;;;;;;;13.03;11.80;;;17.60;95.00;;;;;;5073765;28;20737;-81
2021/09/10 05:57:20;;;;;;;12.50;11.50;;;17.60;95.60;;;;;;5076310;28;20626;-81
2021/09/10 06:00:23;;;;;;;12.73;11.53;;;17.60;95.50;;;;;;5076449;28;20621;-80
2021/09/10 06:03:20;;;;;;;11.63;10.63;;;17.70;95.50;;;;;;5083906;28;20706;-82
2021/09/10 06:06:08;;;;;;;13.47;11.00;;;17.70;95.70;;;;;;5085606;28;20620;-79
2021/09/10 06:08:55;;;;;;;12.87;11.67;;;17.70;95.80;;;;;;5087692;28;20609;-80
2021/09/10 06:11:42;;;;;;;13.33;12.07;;;17.80;95.20;;;;;;5082831;28;21205;-79
2021/09/10 06:14:29;;;;;;;12.70;11.40;;;18.00;94.90;;;;;;5083516;28;21159;-81
2021/09/10 06:17:06;;;;;;;11.73;10.63;;;18.00;94.90;;;;;;5088303;28;20630;-80
2021/09/10 06:19:52;;;;;;;12.77;11.63;;;18.00;95.10;;;;;;5092061;28;20633;-80
2021/09/10 06:22:39;;;;;;;12.97;11.70;;;18.10;95.00;;;;;;5087741;28;20695;-80
2021/09/10 06:25:29;;;;;;;11.70;10.70;;;18.00;95.00;;;;;;5091593;28;20624;-81
2021/09/10 06:31:31;;;;;;;11.50;10.50;;;17.90;95.20;;;;;;5070916;28;20620;-81
2021/09/10 06:34:08;;;;;;;12.00;10.90;;;18.00;95.60;;;;;;5093705;28;20698;-79
2021/09/10 06:36:56;;;;;;;11.70;10.50;;;18.10;95.20;;;;;;5090767;28;20615;-79
2021/09/10 06:39:38;;;;;;;11.33;10.37;;;18.10;95.00;;;;;;5092099;28;20649;-80
2021/09/10 06:42:19;;;;;;;12.70;11.50;;;18.30;95.00;;;;;;5093125;28;20655;-79
2021/09/10 06:44:55;;;;;;;11.00;10.00;;;18.40;94.30;;;;;;5100602;28;20627;-82
2021/09/10 06:47:37;;;;;;;12.07;10.90;;;18.60;93.90;;;;;;5093536;28;20639;-78
2021/09/10 06:50:11;;;;;;;11.17;10.20;;;18.80;93.90;;;;;;5093231;28;21196;-78
2021/09/10 06:52:54;;;;;;;11.17;10.10;;;18.80;93.20;;;;;;5093649;28;20704;-78
2021/09/10 06:55:40;;;;;;;12.13;11.03;;;18.90;93.40;;;;;;5086871;28;21160;-79
2021/09/10 06:58:28;;;;;;;11.83;10.73;;;19.10;92.80;;;;;;5092369;28;20686;-78
2021/09/10 07:01:11;;;;;;;11.80;10.13;;;19.10;93.60;;;;;;5090076;28;20643;-78
2021/09/10 07:07:58;;;;;;;10.27;9.27;;;19.50;92.10;;;;;;5068537;28;21384;-78
2021/09/10 07:10:38;;;;;;;10.07;9.07;;;19.50;92.10;;;;;;5074901;28;20651;-78
2021/09/10 07:13:15;;;;;;;11.63;10.73;;;19.70;91.40;;;;;;5083146;28;20664;-79
2021/09/10 07:15:57;;;;;;;11.93;10.83;;;19.80;91.40;;;;;;5068135;28;20661;-78
2021/09/10 07:18:44;;;;;;;12.20;11.00;;;19.80;92.30;;;;;;5058825;28;20622;-79
2021/09/10 07:21:24;;;;;;;10.40;9.50;;;20.00;92.10;;;;;;5071734;28;20722;-78
2021/09/10 07:24:12;;;;;;;10.87;9.77;;;20.30;90.90;;;;;;5069771;28;20713;-78
2021/09/10 07:27:19;;;;;;;10.27;9.37;;;20.50;90.80;;;;;;5064908;28;20656;-81
2021/09/10 07:30:24;;;;;;;10.93;9.10;;;20.60;90.50;;;;;;5067681;28;20665;-82
2021/09/10 07:33:23;;;;;;;9.73;8.93;;;20.50;91.30;;;;;;5069940;28;20672;-79
2021/09/10 07:36:06;;;;;;;16.00;10.47;;;20.40;90.90;;;;;;5068502;28;20633;-81
2021/09/10 07:38:56;;;;;;;11.43;10.13;;;20.70;90.50;;;;;;5072872;28;20628;-79
2021/09/10 07:41:39;;;;;;;10.60;9.70;;;20.70;91.40;;;;;;5073743;28;20736;-80
2021/09/10 07:44:16;;;;;;;9.37;8.50;;;20.90;90.80;;;;;;5073805;28;20634;-81
2021/09/10 07:46:56;;;;;;;10.23;9.23;;;21.20;90.10;;;;;;5072648;28;20662;-79
2021/09/10 07:49:38;;;;;;;9.67;8.67;;;21.40;90.20;;;;;;5070604;28;20964;-81
2021/09/10 07:52:20;;;;;;;9.07;8.20;;;21.50;90.10;;;;;;5072249;28;20637;-82
2021/09/10 07:55:03;;;;;;;9.93;9.03;;;21.60;88.60;;;;;;5072069;28;20610;-84
2021/09/10 07:57:50;;;;;;;9.03;8.23;;;21.70;87.70;;;;;;5067592;28;20659;-79
2021/09/10 08:00:25;;;;;;;9.50;8.70;;;21.80;87.20;;;;;;5071866;28;21406;-80
2021/09/10 08:03:11;;;;;;;10.10;9.40;;;21.90;87.20;;;;;;5077178;28;20719;-79
2021/09/10 08:06:00;;;;;;;10.63;9.73;;;21.90;88.00;;;;;;5059689;28;20636;-80
2021/09/10 08:08:46;;;;;;;9.70;8.90;;;22.10;86.90;;;;;;5071573;28;20627;-79
2021/09/10 08:11:33;;;;;;;9.53;8.73;;;22.50;85.50;;;;;;5071210;28;20751;-78
2021/09/10 08:14:21;;;;;;;11.03;8.40;;;22.30;86.00;;;;;;5050299;28;20748;-78
2021/09/10 08:17:14;;;;;;;8.93;8.03;;;22.20;86.70;;;;;;5067965;28;20707;-80
2021/09/10 08:20:06;;;;;;;9.30;8.50;;;22.10;86.00;;;;;;5069938;28;20749;-78
2021/09/10 08:22:53;;;;;;;10.03;9.10;;;22.00;85.30;;;;;;5089020;28;20657;-78
2021/09/10 08:25:45;;;;;;;9.40;8.60;;;21.90;87.00;;;;;;5067736;28;20720;-81
2021/09/10 08:28:33;;;;;;;8.20;7.50;;;21.90;86.40;;;;;;5068244;28;20675;-79
2021/09/10 08:31:21;;;;;;;8.27;7.57;;;21.80;86.70;;;;;;5070848;28;20722;-79
2021/09/10 08:34:08;;;;;;;9.33;8.43;;;21.90;87.00;;;;;;5069397;28;21343;-78
2021/09/10 08:36:55;;;;;;;9.50;8.70;;;21.70;85.40;;;;;;5069830;28;21250;-79
2021/09/10 08:39:42;;;;;;;9.10;7.53;;;21.60;86.40;;;;;;5070345;28;20747;-80
2021/09/10 08:42:29;;;;;;;9.67;8.63;;;21.50;85.60;;;;;;5071067;28;21184;-79
2021/09/10 08:45:08;;;;;;;10.80;8.57;;;21.50;86.50;;;;;;5070759;28;20623;-78
2021/09/10 08:47:57;;;;;;;9.07;8.27;;;21.50;86.10;;;;;;5071233;28;20694;-79
2021/09/10 08:50:44;;;;;;;8.50;7.80;;;21.50;86.50;;;;;;5069981;28;20732;-80
2021/09/10 08:53:31;;;;;;;9.20;8.40;;;21.40;87.00;;;;;;5069985;28;20744;-78
2021/09/10 08:56:18;;;;;;;9.80;8.90;;;21.70;88.30;;;;;;5070883;28;20660;-78
2021/09/10 08:59:18;;;;;;;9.90;9.00;;;21.90;86.90;;;;;;5070343;28;20733;-80
2021/09/10 09:02:05;;;;;;;10.17;9.13;;;21.80;87.50;;;;;;5070737;28;20645;-79
2021/09/10 09:04:57;;;;;;;11.20;9.03;;;22.00;87.30;;;;;;5070495;28;20652;-78
2021/09/10 09:07:44;;;;;;;8.37;7.67;;;22.30;85.90;;;;;;5070301;28;20667;-80
2021/09/10 09:10:53;;;;;;;9.20;8.40;;;22.40;83.70;;;;;;5069824;28;20631;-78
2021/09/10 09:13:41;;;;;;;8.70;7.80;;;22.50;85.30;;;;;;5071343;28;20714;-78
2021/09/10 09:16:20;;;;;;;9.73;8.40;;;22.90;84.90;;;;;;5071349;28;21185;-78
2021/09/10 09:19:05;;;;;;;9.40;8.50;;;23.20;84.80;;;;;;5071303;28;20717;-79
2021/09/10 09:22:00;;;;;;;9.40;8.60;;;23.50;82.30;;;;;;5069082;28;20752;-79
2021/09/10 09:25:26;;;;;;;9.07;8.17;;;23.80;80.10;;;;;;5071035;28;20650;-80
2021/09/10 09:28:43;;;;;;;8.50;7.70;;;23.80;81.20;;;;;;5063618;28;20635;-79
2021/09/10 09:31:27;;;;;;;12.80;10.33;;;23.80;79.80;;;;;;5063661;28;21040;-76
2021/09/10 09:34:14;;;;;;;8.30;7.70;;;23.80;78.00;;;;;;5068509;28;20677;-77
2021/09/10 09:37:08;;;;;;;9.13;8.40;;;23.30;78.20;;;;;;5058722;28;21011;-78
2021/09/10 09:40:01;;;;;;;9.60;8.73;;;23.20;81.20;;;;;;5054036;28;21359;-78
2021/09/10 09:42:55;;;;;;;8.90;8.20;;;22.90;80.10;;;;;;5050771;28;20641;-78
2021/09/10 09:45:40;;;;;;;9.90;9.20;;;22.90;81.70;;;;;;5059235;28;20626;-78
2021/09/10 09:48:30;;;;;;;9.83;9.03;;;23.00;82.20;;;;;;5060005;28;20689;-78
2021/09/10 09:51:19;;;;;;;12.03;9.00;;;23.10;83.00;;;;;;5059201;28;21182;-79
2021/09/10 09:54:17;;;;;;;11.07;8.87;;;23.40;80.10;;;;;;5058017;28;21244;-78
2021/09/10 09:56:54;;;;;;;9.73;8.93;;;23.40;79.90;;;;;;5055950;28;20619;-79
2021/09/10 09:59:33;;;;;;;10.90;8.80;;;23.70;79.80;;;;;;5060134;28;20622;-80
2021/09/10 10:02:17;;;;;;;10.70;9.77;;;23.80;79.10;;;;;;5061912;28;20690;-79
2021/09/10 10:05:06;;;;;;;10.20;9.30;;;23.90;78.90;;;;;;5055997;28;21290;-79
2021/09/10 10:07:57;;;;;;;10.27;9.23;;;23.70;79.50;;;;;;5050597;28;20744;-79
2021/09/10 10:10:45;;;;;;;16.27;10.30;;;23.50;80.00;;;;;;5065649;28;20618;-78
2021/09/10 10:13:33;;;;;;;10.13;9.33;;;23.90;81.20;;;;;;5058670;28;20681;-79
2021/09/10 10:16:36;;;;;;;9.70;8.90;;;24.10;79.20;;;;;;5049385;28;20633;-80
2021/09/10 10:19:43;;;;;;;10.77;9.87;;;23.80;77.70;;;;;;5049780;28;20705;-79
2021/09/10 10:22:34;;;;;;;8.83;8.13;;;23.90;78.20;;;;;;5053551;28;20737;-80
2021/09/10 10:25:21;;;;;;;9.50;8.70;;;24.00;75.00;;;;;;5063854;28;20614;-78
2021/09/10 10:28:03;;;;;;;9.50;8.60;;;24.00;76.60;;;;;;5059912;28;20640;-79
2021/09/10 10:30:50;;;;;;;9.93;9.13;;;24.00;77.40;;;;;;5060046;28;20634;-79
2021/09/10 10:33:46;;;;;;;9.43;8.63;;;24.30;77.70;;;;;;5061953;28;20696;-79
2021/09/10 10:36:35;;;;;;;10.03;8.90;;;24.30;77.00;;;;;;5063406;28;20712;-79
2021/09/10 10:39:28;;;;;;;10.27;9.33;;;24.50;78.30;;;;;;5066777;28;20649;-79
2021/09/10 10:42:16;;;;;;;9.50;8.60;;;24.40;75.90;;;;;;5057094;28;20639;-79
2021/09/10 10:45:03;;;;;;;9.83;8.90;;;24.40;77.10;;;;;;5054768;28;20645;-80
2021/09/10 10:48:30;;;;;;;9.00;8.30;;;24.40;77.00;;;;;;5063380;28;20634;-80
2021/09/10 10:51:50;;;;;;;9.03;8.40;;;24.70;74.40;;;;;;5047599;28;20745;-78
2021/09/10 10:54:37;;;;;;;9.40;8.60;;;25.20;74.30;;;;;;5053249;28;20757;-78
2021/09/10 10:57:28;;;;;;;9.00;8.17;;;24.90;73.50;;;;;;5063038;28;20615;-79
2021/09/10 11:00:50;;;;;;;8.43;7.73;;;25.00;75.50;;;;;;5060034;28;21196;-79
2021/09/10 11:03:39;;;;;;;8.53;7.83;;;25.30;74.70;;;;;;5020759;28;20732;-79
2021/09/10 11:06:36;;;;;;;7.90;7.20;;;25.00;75.80;;;;;;5063736;28;20677;-79
2021/09/10 11:09:16;;;;;;;9.30;8.30;;;24.90;72.20;;;;;;5066216;28;21202;-78
2021/09/10 11:12:03;;;;;;;7.93;7.13;;;24.80;71.80;;;;;;5062996;28;20629;-78
2021/09/10 11:14:49;;;;;;;8.43;7.73;;;24.60;72.40;;;;;;5064107;28;20672;-78
2021/09/10 11:17:33;;;;;;;9.40;8.70;;;24.40;71.90;;;;;;5062312;28;21175;-78
2021/09/10 11:20:26;;;;;;;8.60;7.87;;;24.30;74.00;;;;;;5051843;28;20614;-79
2021/09/10 11:23:15;;;;;;;8.97;8.27;;;24.50;75.10;;;;;;5065712;28;20686;-79
2021/09/10 11:26:02;;;;;;;9.57;8.60;;;24.50;75.10;;;;;;5053122;28;21589;-79
2021/09/10 11:28:42;;;;;;;9.47;8.73;;;24.50;74.50;;;;;;5056179;28;20634;-79
2021/09/10 11:31:27;;;;;;;8.70;8.00;;;24.50;76.70;;;;;;5067080;28;20625;-78
2021/09/10 11:34:32;;;;;;;8.70;7.90;;;24.80;73.20;;;;;;5057015;28;20654;-78
2021/09/10 11:37:26;;;;;;;8.57;7.87;;;25.00;72.20;;;;;;5057813;28;20695;-79
2021/09/10 11:40:13;;;;;;;10.27;9.40;;;25.50;74.00;;;;;;5068491;28;20599;-78
2021/09/10 11:43:06;;;;;;;9.17;8.37;;;25.80;71.80;;;;;;5067567;28;20618;-79
2021/09/10 11:45:57;;;;;;;8.83;8.13;;;25.80;69.20;;;;;;5069100;28;20641;-78
2021/09/10 11:48:42;;;;;;;8.77;8.07;;;26.10;69.60;;;;;;5062941;28;21027;-78
2021/09/10 11:51:46;;;;;;;8.50;7.80;;;25.90;72.10;;;;;;5057908;28;20626;-79
2021/09/10 11:54:28;;;;;;;8.70;7.93;;;25.80;72.50;;;;;;5062478;28;21256;-79
2021/09/10 11:57:19;;;;;;;8.70;8.10;;;26.10;71.20;;;;;;5063890;28;20629;-79
2021/09/10 12:00:08;;;;;;;8.77;8.00;;;26.30;70.10;;;;;;5063089;28;20699;-79
2021/09/10 12:02:55;;;;;;;8.80;8.10;;;26.00;70.50;;;;;;5063743;28;20609;-79
2021/09/10 12:05:42;;;;;;;9.07;8.23;;;25.90;70.20;;;;;;5060232;28;20701;-79
2021/09/10 12:08:28;;;;;;;8.20;7.60;;;25.50;69.80;;;;;;5062627;28;20626;-79
2021/09/10 12:11:20;;;;;;;9.00;8.23;;;25.60;71.80;;;;;;5059024;28;20621;-79
2021/09/10 12:14:15;;;;;;;9.67;8.83;;;25.70;74.80;;;;;;5063077;28;20654;-79
2021/09/10 12:17:29;;;;;;;8.90;8.20;;;25.80;72.70;;;;;;5067025;28;20636;-79
2021/09/10 12:20:17;;;;;;;8.97;8.27;;;25.30;72.40;;;;;;5032994;28;20654;-79
2021/09/10 12:23:00;;;;;;;10.20;9.20;;;25.20;73.60;;;;;;5061608;28;20621;-78
2021/09/10 12:25:58;;;;;;;9.53;8.83;;;25.10;73.40;;;;;;5063093;28;20629;-79
2021/09/10 12:28:44;;;;;;;9.33;8.47;;;25.50;74.90;;;;;;5069580;28;20636;-78
2021/09/10 12:31:32;;;;;;;9.30;8.57;;;25.70;73.40;;;;;;5061774;28;20695;-79
2021/09/10 12:34:10;;;;;;;9.47;8.10;;;25.80;73.70;;;;;;5068732;28;20665;-79
2021/09/10 12:36:51;;;;;;;9.47;8.37;;;25.90;74.10;;;;;;5071937;28;20661;-79
2021/09/10 12:39:30;;;;;;;8.83;8.13;;;26.10;71.60;;;;;;5063955;28;20695;-79
2021/09/10 12:42:05;;;;;;;9.10;8.20;;;25.60;72.20;;;;;;5061294;28;20630;-78
2021/09/10 12:44:37;;;;;;;7.93;7.40;;;25.80;73.20;;;;;;5056695;28;20634;-79
2021/09/10 12:47:14;;;;;;;10.00;9.20;;;25.80;72.90;;;;;;5058940;28;20704;-80
2021/09/10 12:49:44;;;;;;;8.43;7.63;;;25.70;72.80;;;;;;5062018;28;20733;-80
2021/09/10 12:52:18;;;;;;;9.70;8.93;;;25.80;74.00;;;;;;5058955;28;21024;-79
2021/09/10 12:55:35;;;;;;;8.80;8.00;;;25.60;76.00;;;;;;5064559;28;21093;-83
2021/09/10 12:58:27;;;;;;;8.90;8.20;;;25.30;77.00;;;;;;5057590;28;21010;-80
2021/09/10 13:01:15;;;;;;;9.77;9.03;;;25.50;75.30;;;;;;5063257;28;20650;-81
2021/09/10 13:04:16;;;;;;;9.50;8.70;;;25.30;75.00;;;;;;5062339;28;20630;-79
2021/09/10 13:06:54;;;;;;;9.53;8.73;;;25.30;72.30;;;;;;5058723;28;20983;-80
2021/09/10 13:09:28;;;;;;;8.70;7.97;;;25.10;76.80;;;;;;5060027;28;20687;-80
2021/09/10 13:12:01;;;;;;;9.50;8.70;;;24.90;81.00;;;;;;5055110;28;20650;-80
2021/09/10 13:14:47;;;;;;;9.10;8.37;;;24.90;76.40;;;;;;5065140;28;21109;-81
2021/09/10 13:17:19;;;;;;;10.43;9.57;;;25.30;75.40;;;;;;5071674;28;20617;-80
2021/09/10 13:19:53;;;;;;;8.67;7.93;;;25.20;77.00;;;;;;5064977;28;20622;-80
2021/09/10 13:22:24;;;;;;;9.60;8.73;;;25.00;75.30;;;;;;5062073;28;20625;-81
2021/09/10 13:25:05;;;;;;;9.33;8.67;;;25.10;75.40;;;;;;5072167;28;20623;-80
2021/09/10 13:27:37;;;;;;;7.67;7.07;;;24.80;78.00;;;;;;5069479;28;20625;-81
2021/09/10 13:30:19;;;;;;;6.17;5.67;;;24.60;74.50;;;;;;5070782;28;20684;-80
2021/09/10 13:32:52;;;;;;;8.43;7.30;;;24.50;75.50;;;;;;5068373;28;20653;-80
2021/09/10 13:35:25;;;;;;;7.27;6.67;;;24.30;75.60;;;;;;5055374;28;20778;-81
2021/09/10 13:37:56;;;;;;;7.20;5.70;;;24.40;75.90;;;;;;5061572;28;20621;-81
2021/09/10 13:40:33;;;;;;;7.60;6.90;;;24.50;76.30;;;;;;5061322;28;20672;-81
2021/09/10 13:43:15;;;;;;;7.83;6.23;;;24.60;74.20;;;;;;5061081;28;20619;-80
2021/09/10 13:45:49;;;;;;;6.60;6.00;;;24.40;73.30;;;;;;5056234;28;20664;-80
2021/09/10 13:48:29;;;;;;;5.93;5.50;;;24.30;77.10;;;;;;5059195;28;20633;-82
2021/09/10 13:51:02;;;;;;;7.23;6.60;;;24.40;77.20;;;;;;5062563;28;20633;-80
2021/09/10 13:53:42;;;;;;;7.93;7.33;;;24.40;76.60;;;;;;5058140;28;21184;-83
2021/09/10 13:56:32;;;;;;;8.00;7.40;;;24.70;77.80;;;;;;5058343;28;21063;-80
2021/09/10 13:59:15;;;;;;;8.90;8.20;;;25.10;77.10;;;;;;5059739;28;20726;-81
2021/09/10 14:01:51;;;;;;;8.50;7.80;;;25.30;76.60;;;;;;5059668;28;20690;-80
2021/09/10 14:04:26;;;;;;;8.83;8.13;;;25.40;75.80;;;;;;5057973;28;20984;-81
2021/09/10 14:06:56;;;;;;;8.17;7.47;;;25.20;77.20;;;;;;5063319;28;20994;-81
2021/09/10 14:09:33;;;;;;;8.90;8.10;;;24.90;78.30;;;;;;5070074;28;20644;-80
2021/09/10 14:12:06;;;;;;;7.50;6.80;;;24.80;77.90;;;;;;5063983;28;20721;-81
2021/09/10 14:14:40;;;;;;;7.70;7.10;;;25.00;77.20;;;;;;5064093;28;21235;-80